Decoded Metar for KDDH (BENNINGTON in VT, USA) (IATA:DDH) | Meteo·Mobile Aviation Weather
aviador You're here:

KDDH Decoded Metar

BENNINGTON in VT, USA
Report Time2019-01-17 23:54:00
UTC Time2019-01-18 00:05:28
Flight Rules vfr VFR
WindCalm
Visibility9999 m
Phenomena:N/A
Clouds:N/A
Expected CloudBase > 3,200 ft AGL from Temp-Dew spread
CeilingNone
Temp-8°C (ISA -21)
Dew Point-16°C (53% RH)
AAT-11.4°C
QNH1024 hPa
Density Alt-2,208 ft
Elevation801 ft
Report Wrong Elevation
Raw Report
KDDH 172354Z AUTO 00000KT 10SM CLR M08/M16 A3024 RMK AO2 SLP257
T10781161 11056 21083 58008=

Extra information for KDDH:More info

Metar Taf Metar & Taf Last 4 Metars F.Rules Stats Wind Profile Meteogram Temp Stats Airport Information Weather charts Add Link Nearby VenuesMetar ALERT Operation Metar Decoded Social comments

AIRNAV info for KDDH